Latest Weather Observations for Sydney - Observatory Hill

IDN60801

Issued at 3:03 pm EST Friday 31 July 2015 (issued every 30 minutes, with the page automatically refreshed every 10 minutes)

About weather observations | Map of weather stations | Latest weather observations for NSW | Other Formats
Station Details ID: 066062 Name: SYDNEY (OBSERVATORY HILL) Lat: -33.86 Lon: 151.21 Height: 39.0 m
Data from the previous 72 hours. | See also: Recent months at Sydney - Observatory Hill

* Apparent temperature (App Temp) for Sydney - Observatory Hill is calculated using temperature observations collected at Sydney - Observatory Hill and wind observations collected at Fort Denison, as wind observations are not currently provided for Sydney - Observatory Hill.

Date/Time
EST
Temp
°C
App
Temp
°C
Dew
Point
Rel
Hum
%
Delta-T
°C
Wind Press
QNH
hPa
Press
MSL
hPa
Rain
since 9 am
mm
Dir
 
Spd
km/h
Gust
km/h
Spd
kts
Gust
kts
31/03:00pm 20.4 17.1 2.7 31 8.3 WNW 9 - 5 - 1019.4 1019.5 0.0
31/02:30pm 20.5 16.8 2.3 30 8.4 NNW 11 - 6 - 1019.5 1019.6 0.0
31/02:00pm 20.1 15.9 1.5 29 8.5 WNW 13 - 7 - 1019.8 1019.8 0.0
31/01:30pm 20.2 15.8 2.5 31 8.2 WNW 15 - 8 - 1019.8 1019.8 0.0
31/01:00pm 19.8 15.4 2.6 32 8.0 WNW 15 - 8 - 1020.1 1020.1 0.0
31/12:30pm 18.6 14.0 1.6 32 7.7 WNW 15 - 8 - 1020.4 1020.4 0.0
31/12:00pm 17.8 13.3 2.2 35 7.1 WNW 15 - 8 - 1020.8 1020.8 0.0
31/11:30am 17.2 11.8 2.4 37 6.7 W 20 - 11 - 1021.1 1021.1 0.0
31/11:00am 16.5 11.8 3.2 41 6.1 WNW 17 - 9 - 1021.5 1021.5 0.0
31/10:30am 16.0 11.4 3.8 44 5.6 W 17 - 9 - 1021.7 1021.7 0.0
31/10:00am 15.8 10.7 3.3 43 5.7 W 19 - 10 - 1021.6 1021.6 0.0
31/09:30am 15.4 12.0 4.2 47 5.2 W 11 - 6 - 1021.5 1021.5 0.0
31/09:00am 14.7 12.3 4.1 49 4.9 N 6 - 3 - 1021.4 1021.4 0.0
31/08:30am 14.5 - 4.5 51 4.6 - - - - - 1021.1 1021.1 0.0
31/08:00am 12.9 - 5.1 59 3.6 - - - - - 1021.0 1021.0 0.0
31/07:30am 12.6 - 4.6 58 3.7 - - - - - 1020.9 1020.9 0.0
31/07:00am 12.5 - 4.0 56 3.8 - - - - - 1020.8 1020.8 0.0
31/06:30am 12.7 - 3.9 55 4.0 - - - - - 1020.1 1020.1 0.0
31/06:00am 12.5 8.9 3.2 53 4.1 W 11 - 6 - 1019.4 1019.5 0.0
31/05:30am 13.0 - 3.1 51 4.4 - - - - - 1019.2 1019.3 0.0
31/05:00am 12.7 - 3.4 53 4.1 - - - - - 1019.0 1019.1 0.0
31/04:30am 12.3 - 5.2 62 3.3 - - - - - 1018.4 1018.5 0.0
31/04:00am 12.9 - 2.7 50 4.5 - - - - - 1018.9 1019.0 0.0
31/03:30am 12.5 - 3.5 54 4.0 - - - - - 1018.7 1018.8 0.0
31/03:00am 12.6 - 3.5 54 4.1 - - - - - 1018.6 1018.7 0.0
31/02:30am 12.6 - 3.5 54 4.1 - - - - - 1018.9 1019.0 0.0
31/02:00am 13.1 - 4.0 54 4.1 - - - - - 1019.0 1019.1 0.0
31/01:30am 12.8 - 4.0 55 4.0 - - - - - 1018.9 1019.0 0.0
31/01:00am 13.0 - 3.4 52 4.3 - - - - - 1019.1 1019.2 0.0
31/12:30am 13.4 - 3.5 51 4.5 - - - - - 1019.0 1019.1 0.0
31/12:00am 13.5 - 3.6 51 4.5 - - - - - 1019.0 1019.1 0.0
 
Date/Time
EST
Temp
°C
App
Temp
°C
Dew
Point
Rel
Hum
%
Delta-T
°C
Wind Press
QNH
hPa
Press
MSL
hPa
Rain
since 9 am
mm
Dir
 
Spd
km/h
Gust
km/h
Spd
kts
Gust
kts
30/11:30pm 13.8 - 3.0 48 4.8 - - - - - 1018.6 1018.7 0.0
30/11:00pm 14.1 - 3.0 47 5.0 - - - - - 1018.7 1018.8 0.0
30/10:30pm 14.1 - 2.7 46 5.1 - - - - - 1019.0 1019.1 0.0
30/10:00pm 14.4 - 2.9 46 5.1 - - - - - 1019.2 1019.3 0.0
30/09:30pm 14.3 - 3.2 47 5.0 - - - - - 1019.4 1019.5 0.0
30/09:00pm 14.6 11.1 3.7 48 5.0 W 11 - 6 - 1019.3 1019.4 0.0
30/08:30pm 15.0 - 3.5 46 5.2 - - - - - 1019.2 1019.3 0.0
30/08:00pm 15.4 - 3.2 44 5.5 - - - - - 1019.2 1019.3 0.0
30/07:30pm 15.9 - 2.7 41 6.0 - - - - - 1019.3 1019.4 0.0
30/07:00pm 15.9 - 2.3 40 6.1 - - - - - 1019.2 1019.3 0.0
30/06:30pm 16.2 - 1.9 38 6.4 - - - - - 1019.0 1019.1 0.0
30/06:00pm 16.4 12.5 1.3 36 6.6 W 11 - 6 - 1018.9 1019.0 0.0
30/05:30pm 16.6 - 1.1 35 6.8 - - - - - 1018.8 1018.9 0.0
30/05:00pm 17.2 - 0.8 33 7.2 - - - - - 1018.7 1018.8 0.0
30/04:30pm 17.9 - 0.6 31 7.6 - - - - - 1018.9 1019.0 0.0
30/04:00pm 18.1 - 1.2 32 7.5 - - - - - 1019.3 1019.4 0.0
30/03:30pm 19.0 - 2.0 32 7.8 - - - - - 1019.6 1019.7 0.0
30/03:00pm 19.2 - 1.2 30 8.1 - - - - - 1020.1 1020.1 0.0
30/02:30pm 20.0 - 1.9 30 8.3 - - - - - 1020.2 1020.2 0.0
30/02:00pm 20.0 - 1.9 30 8.3 - - - - - 1020.9 1020.9 0.0
30/01:30pm 19.4 - 2.7 33 7.8 - - - - - 1021.3 1021.3 0.0
30/01:00pm 18.7 - 2.5 34 7.4 - - - - - 1021.8 1021.8 0.0
30/12:30pm 18.5 - 3.2 36 7.1 - - - - - 1022.3 1022.3 0.0
30/12:00pm 16.6 - 3.6 42 6.0 - - - - - 1022.9 1022.9 0.0
30/11:30am 15.1 - 5.9 54 4.4 - - - - - 1023.6 1023.6 0.0
30/11:00am 14.1 - 6.5 60 3.6 - - - - - 1024.5 1024.5 0.0
30/10:30am 13.4 - 6.3 62 3.4 - - - - - 1025.2 1025.2 0.0
30/10:00am 13.0 - 7.2 68 2.8 - - - - - 1025.7 1025.7 0.0
30/09:30am 11.6 - 6.7 72 2.3 - - - - - 1025.9 1025.9 0.0
30/09:00am 10.7 - 7.4 80 1.6 - - - - - 1026.3 1026.3 0.0
30/08:30am 10.4 7.7 7.5 82 1.4 W 11 - 6 - 1026.6 1026.6 0.0
30/08:00am 9.8 7.2 7.6 86 1.0 W 11 - 6 - 1026.7 1026.7 0.0
30/07:30am 9.5 6.9 7.8 89 0.8 WNW 11 - 6 - 1026.3 1026.3 0.0
30/07:00am 8.8 6.2 7.7 93 0.5 WNW 11 - 6 - 1026.1 1026.1 0.0
30/06:30am 8.4 5.4 7.5 94 0.4 WNW 13 - 7 - 1026.2 1026.2 0.0
30/06:00am 8.2 5.8 7.0 92 0.6 WNW 9 - 5 - 1026.5 1026.5 0.0
30/05:30am 8.5 4.6 7.1 91 0.7 W 17 - 9 - 1026.7 1026.7 0.0
30/05:00am 8.8 5.7 7.3 90 0.7 W 13 - 7 - 1026.6 1026.6 0.0
30/04:30am 9.3 6.2 7.4 88 0.9 W 13 - 7 - 1026.8 1026.8 0.0
30/04:00am 9.9 6.9 7.7 86 1.0 W 13 - 7 - 1027.0 1027.0 0.0
30/03:30am 10.3 8.2 8.2 87 1.0 W 9 - 5 - 1027.1 1027.1 0.0
30/03:00am 10.3 9.1 8.1 86 1.1 NW 4 - 2 - 1027.0 1027.0 0.0
30/02:30am 10.5 9.4 8.3 86 1.1 W 4 - 2 - 1027.4 1027.4 0.0
30/02:00am 10.3 7.8 8.2 87 1.0 W 11 - 6 - 1028.0 1028.0 0.0
30/01:30am 10.2 6.6 8.3 88 0.9 W 17 - 9 - 1028.5 1028.5 0.0
30/01:00am 10.5 6.9 8.4 87 1.0 W 17 - 9 - 1028.8 1028.8 0.0
30/12:30am 10.5 8.0 8.3 86 1.1 W 11 - 6 - 1028.8 1028.8 0.0
30/12:00am 10.5 8.0 8.3 86 1.1 W 11 - 6 - 1029.2 1029.2 0.0
 
Date/Time
EST
Temp
°C
App
Temp
°C
Dew
Point
Rel
Hum
%
Delta-T
°C
Wind Press
QNH
hPa
Press
MSL
hPa
Rain
since 9 am
mm
Dir
 
Spd
km/h
Gust
km/h
Spd
kts
Gust
kts
29/11:30pm 10.8 7.9 8.2 84 1.3 WNW 13 - 7 - 1029.6 1029.6 0.0
29/11:00pm 11.2 7.8 7.7 79 1.7 W 15 - 8 - 1030.0 1030.0 0.0
29/10:30pm 11.8 10.5 7.7 76 2.0 WNW 4 - 2 - 1030.5 1030.5 0.0
29/10:00pm 12.6 11.4 7.9 73 2.3 NNW 4 - 2 - 1030.4 1030.4 0.0
29/09:30pm 13.4 11.8 8.0 70 2.7 NNW 6 - 3 - 1030.3 1030.3 0.0
29/09:00pm 13.6 11.8 8.0 69 2.8 N 7 - 4 - 1030.2 1030.2 0.0
29/08:30pm 13.7 12.1 7.9 68 2.9 NNW 6 - 3 - 1030.3 1030.3 0.0
29/08:00pm 13.9 13.0 7.9 67 3.0 NE 2 - 1 - 1030.3 1030.3 0.0
29/07:30pm 14.2 13.3 7.9 66 3.1 N 2 - 1 - 1030.6 1030.6 0.0
29/07:00pm 14.5 13.2 7.8 64 3.3 N 4 - 2 - 1030.6 1030.6 0.0
29/06:30pm 14.7 13.5 8.0 64 3.3 NE 4 - 2 - 1030.4 1030.4 0.0
29/06:00pm 14.7 13.1 8.2 65 3.2 NE 6 - 3 - 1030.2 1030.2 0.0
29/05:30pm 14.8 12.5 7.6 62 3.6 E 9 - 5 - 1029.8 1029.8 0.0
29/05:00pm 14.9 12.1 7.0 59 3.8 ESE 11 - 6 - 1029.9 1029.9 0.0
29/04:30pm 15.0 12.5 6.6 57 4.1 E 9 - 5 - 1029.7 1029.7 0.0
29/04:00pm 15.3 12.4 6.6 56 4.2 ESE 11 - 6 - 1029.7 1029.7 0.0
29/03:30pm 15.6 12.8 6.9 56 4.3 ESE 11 - 6 - 1030.0 1030.0 0.0
29/03:00pm 16.4 13.4 6.0 50 5.0 ESE 11 - 6 - 1030.2 1030.2 0.0
29/02:30pm 17.7 14.6 7.4 51 5.2 ESE 13 - 7 - 1030.5 1030.5 0.0
29/02:00pm 17.0 13.9 7.1 52 4.9 ESE 13 - 7 - 1030.9 1030.9 0.0
29/01:30pm 16.7 13.0 6.2 50 5.1 ESE 15 - 8 - 1031.1 1031.1 0.0
29/01:00pm 17.7 16.0 5.9 46 5.7 ENE 4 - 2 - 1031.7 1031.7 0.0
29/12:30pm 17.3 15.5 7.1 51 5.1 WNW 6 - 3 - 1032.2 1032.2 0.0
29/12:00pm 15.1 12.6 6.7 57 4.1 WNW 9 - 5 - 1032.9 1032.9 0.0
29/11:30am 13.8 10.5 6.2 60 3.6 WNW 13 - 7 - 1033.5 1033.5 0.0
29/11:00am 12.6 - 5.8 63 3.2 - - - - - 1034.1 1034.1 0.0
29/10:30am 11.9 - 5.5 65 3.0 - - - - - 1034.5 1034.5 0.0
29/10:00am 11.2 - 5.1 66 2.8 - - - - - 1034.7 1034.7 0.0
29/09:30am 10.4 - 5.0 69 2.4 - - - - - 1034.9 1034.9 0.0
29/09:00am 9.3 - 4.1 70 2.3 - - - - - 1035.0 1035.0 0.0
29/08:30am 8.6 - 3.8 72 2.1 - - - - - 1035.0 1035.0 0.0
29/08:00am 8.6 3.6 4.4 75 1.8 W 20 - 11 - 1034.8 1034.8 0.0
29/07:30am 8.3 3.8 4.1 75 1.8 W 17 - 9 - 1034.6 1034.6 0.0
29/07:00am 8.3 3.4 4.3 76 1.7 W 19 - 10 - 1034.3 1034.3 0.0
29/06:30am 8.3 3.3 4.5 77 1.7 W 20 - 11 - 1034.0 1034.0 0.0
29/06:00am 8.1 3.6 4.1 76 1.7 W 17 - 9 - 1033.7 1033.7 0.0
29/05:30am 8.2 3.7 4.0 75 1.8 W 17 - 9 - 1033.4 1033.4 0.0
29/05:00am 8.2 3.7 4.4 77 1.6 WNW 17 - 9 - 1033.3 1033.3 0.0
29/04:30am 8.5 3.6 3.9 73 2.0 WNW 19 - 10 - 1033.1 1033.1 0.0
29/04:00am 8.5 4.4 4.3 75 1.8 WNW 15 - 8 - 1033.1 1033.1 0.0
29/03:30am 8.5 3.5 4.5 76 1.8 WNW 20 - 11 - 1033.0 1033.0 0.0
29/03:00am 8.3 4.0 5.2 81 1.4 W 17 - 9 - 1033.1 1033.1 0.0
29/02:30am 8.2 3.5 5.0 80 1.4 W 19 - 10 - 1033.2 1033.2 0.0
29/02:00am 8.2 3.6 5.7 84 1.1 W 19 - 10 - 1033.3 1033.3 0.0
29/01:30am 8.2 4.0 5.8 85 1.1 W 17 - 9 - 1033.1 1033.1 0.0
29/01:00am 8.3 3.5 5.6 83 1.2 WNW 20 - 11 - 1033.2 1033.2 0.0
29/12:30am 8.5 3.9 5.4 81 1.4 WNW 19 - 10 - 1033.2 1033.2 0.0
29/12:00am 8.9 4.2 5.3 78 1.6 WNW 19 - 10 - 1033.2 1033.2 0.0
 
Date/Time
EST
Temp
°C
App
Temp
°C
Dew
Point
Rel
Hum
%
Delta-T
°C
Wind Press
QNH
hPa
Press
MSL
hPa
Rain
since 9 am
mm
Dir
 
Spd
km/h
Gust
km/h
Spd
kts
Gust
kts
28/11:30pm 9.3 4.5 4.5 72 2.1 WNW 19 - 10 - 1033.3 1033.3 0.0
28/11:00pm 9.9 4.9 4.7 70 2.3 W 20 - 11 - 1033.4 1033.4 0.0
28/10:30pm 10.5 5.6 4.9 68 2.5 WNW 20 - 11 - 1033.3 1033.3 0.0
28/10:00pm 11.8 10.6 6.5 70 2.5 ENE 2 - 1 - 1032.8 1032.8 0.0
28/09:30pm 12.2 11.0 6.5 68 2.7 N 2 - 1 - 1032.9 1032.9 0.0
28/09:00pm 12.2 10.5 5.8 65 3.0 NW 4 - 2 - 1032.8 1032.8 0.0
28/08:30pm 12.5 10.8 5.7 63 3.2 ENE 4 - 2 - 1032.8 1032.8 0.0
28/08:00pm 12.8 11.0 5.2 60 3.5 S 4 - 2 - 1032.8 1032.8 0.0
28/07:30pm 13.4 11.0 5.3 58 3.8 SSW 7 - 4 - 1032.9 1032.9 0.0
28/07:00pm 13.3 11.0 5.0 57 3.8 SSW 6 - 3 - 1032.5 1032.5 0.0
28/06:30pm 13.7 11.2 4.8 55 4.1 S 7 - 4 - 1032.2 1032.2 0.0
28/06:00pm 13.8 11.3 4.7 54 4.2 S 7 - 4 - 1031.8 1031.8 0.0
28/05:30pm 14.0 11.0 4.3 52 4.5 S 9 - 5 - 1031.4 1031.4 0.0
28/05:00pm 14.1 10.3 4.1 51 4.5 S 13 - 7 - 1031.2 1031.2 0.0
28/04:30pm 14.4 9.8 3.5 48 4.9 S 17 - 9 - 1031.1 1031.1 0.0
28/04:00pm 14.9 9.8 2.8 44 5.4 SSE 19 - 10 - 1031.1 1031.1 0.0
28/03:30pm 16.4 11.1 2.8 40 6.2 S 20 - 11 - 1030.7 1030.7 0.0

Other Formats:

Comma delimited format used in spreadsheet applications
http://www.bom.gov.au/fwo/IDN60801/IDN60801.94768.axf

JavaScript Object Notation format (JSON) in row-major order
http://www.bom.gov.au/fwo/IDN60801/IDN60801.94768.json